createdAt,value
2019-04-05T04:01:29.561Z,17.20
2019-04-05T04:03:55.350Z,16.20
2019-04-05T04:08:46.996Z,14.43
2019-04-05T04:13:38.837Z,16.77
2019-04-05T04:18:30.698Z,17.32
2019-04-05T04:21:12.055Z,14.43
2019-04-05T04:23:38.110Z,17.95
2019-04-05T04:28:30.436Z,16.15
2019-04-05T04:33:22.229Z,16.15
2019-04-05T04:35:48.694Z,14.95
2019-04-05T04:38:14.471Z,15.00
2019-04-05T04:43:06.159Z,18.55
2019-04-05T04:47:57.753Z,18.77
2019-04-05T04:52:50.207Z,18.42
2019-04-05T04:55:15.977Z,17.85
2019-04-05T05:00:07.706Z,13.72
2019-04-05T05:04:59.127Z,13.95
2019-04-05T05:09:51.337Z,15.45
2019-04-05T05:12:17.155Z,15.18
2019-04-05T05:17:08.882Z,14.05
2019-04-05T05:22:00.644Z,14.73
2019-04-05T05:26:52.588Z,10.80
2019-04-05T05:29:18.396Z,14.73
2019-04-05T05:34:10.115Z,12.75
2019-04-05T05:36:35.917Z,11.85
2019-04-05T05:41:27.345Z,15.18
2019-04-05T05:46:18.774Z,16.32
2019-04-05T05:51:10.186Z,15.03
2019-04-05T05:56:01.612Z,11.60
2019-04-05T06:00:53.083Z,12.82
2019-04-05T06:05:44.815Z,18.00
2019-04-05T06:08:10.906Z,17.57
2019-04-05T06:13:02.596Z,14.53
2019-04-05T06:18:04.091Z,11.48
2019-04-05T06:20:21.999Z,12.03
2019-04-05T06:25:13.671Z,11.55
2019-04-05T06:30:05.083Z,16.62
2019-04-05T06:34:56.494Z,12.10
2019-04-05T06:39:48.188Z,13.83
2019-04-05T06:44:39.681Z,20.08
2019-04-05T06:49:31.094Z,13.72
2019-04-05T06:54:22.967Z,16.20
2019-04-05T06:56:48.741Z,23.98
2019-04-05T06:59:14.850Z,13.00
2019-04-05T07:04:06.590Z,11.45
2019-04-05T07:08:58.337Z,11.30
2019-04-05T07:13:49.792Z,12.47
2019-04-05T07:16:15.571Z,9.93
2019-04-05T07:21:07.285Z,9.43
2019-04-05T07:23:33.348Z,10.43
2019-04-05T07:28:25.428Z,10.25
2019-04-05T07:30:51.268Z,9.95
2019-04-05T07:33:17.070Z,10.72
2019-04-05T07:35:42.848Z,11.00
2019-04-05T07:38:09.887Z,10.75
2019-04-05T07:40:35.756Z,11.28
2019-04-05T07:43:01.852Z,15.28
2019-04-05T07:47:53.593Z,12.07
2019-04-05T07:52:45.280Z,13.93
2019-04-05T07:55:11.087Z,12.37
2019-04-05T07:57:36.821Z,10.43
2019-04-05T08:00:06.789Z,8.70
2019-04-05T08:02:32.603Z,10.50
2019-04-05T08:04:58.415Z,9.85
2019-04-05T08:07:28.236Z,10.10
2019-04-05T08:09:54.195Z,9.00
2019-04-05T08:12:19.974Z,8.60
2019-04-05T08:14:46.127Z,10.72
2019-04-05T08:19:37.541Z,8.78
2019-04-05T08:22:03.352Z,108.65
2019-04-05T08:24:29.376Z,10.58
2019-04-05T08:26:55.186Z,6.72
2019-04-05T08:29:20.952Z,8.58
2019-04-05T08:31:46.970Z,4.87
2019-04-05T08:34:13.065Z,5.45
2019-04-05T08:39:06.511Z,7.45
2019-04-05T08:41:32.331Z,7.03
2019-04-05T08:43:58.097Z,6.10
2019-04-05T08:46:24.211Z,3.35
2019-04-05T08:51:17.564Z,5.25
2019-04-05T08:53:43.380Z,4.50
2019-04-05T08:56:09.143Z,4.22
2019-04-05T08:58:35.253Z,4.12
2019-04-05T09:03:26.995Z,1.85
2019-04-05T09:08:21.290Z,2.22
2019-04-05T09:10:46.407Z,1.70
2019-04-05T09:13:12.523Z,1.55
2019-04-05T09:18:04.695Z,4.47
2019-04-05T09:22:56.374Z,6.25
2019-04-05T09:25:22.140Z,4.03
2019-04-05T09:27:47.952Z,6.92
2019-04-05T09:30:15.928Z,4.65
2019-04-05T09:32:41.724Z,5.17
2019-04-05T09:35:07.690Z,1.70
2019-04-05T09:37:33.494Z,1.80
2019-04-05T09:39:59.610Z,1.42
2019-04-05T09:44:51.022Z,2.20
2019-04-05T09:47:16.793Z,2.05
2019-04-05T09:49:42.603Z,2.35
2019-04-05T09:52:08.407Z,2.25
2019-04-05T09:54:34.192Z,1.95
2019-04-05T09:57:00.246Z,1.62
2019-04-05T10:01:51.921Z,2.72
2019-04-05T10:04:18.008Z,2.30
2019-04-05T10:06:43.773Z,3.72
2019-04-05T10:09:09.851Z,1.92
2019-04-05T10:11:35.620Z,2.37
2019-04-05T10:14:01.397Z,6.55
2019-04-05T10:16:27.209Z,4.50
2019-04-05T10:18:53.018Z,2.65
2019-04-05T10:21:18.788Z,2.52
2019-04-05T10:23:44.601Z,2.60
2019-04-05T10:26:10.386Z,2.60
2019-04-05T10:28:36.173Z,3.08
2019-04-05T10:31:01.959Z,2.42
2019-04-05T10:33:27.755Z,2.35
2019-04-05T10:35:53.522Z,3.42
2019-04-05T10:38:19.332Z,4.15
2019-04-05T10:40:45.140Z,3.83
2019-04-05T10:43:10.906Z,2.27
2019-04-05T10:45:36.688Z,2.87
2019-04-05T10:48:02.778Z,2.33
2019-04-05T10:52:54.708Z,2.98
2019-04-05T10:57:46.126Z,2.47
2019-04-05T11:00:14.315Z,2.80
2019-04-05T11:02:40.088Z,2.40
2019-04-05T11:05:05.875Z,6.20
2019-04-05T11:07:34.848Z,4.50
2019-04-05T11:09:59.613Z,2.90
2019-04-05T11:12:25.371Z,2.20
2019-04-05T11:14:51.503Z,2.45
2019-04-05T11:19:43.469Z,3.95
2019-04-05T11:22:09.238Z,2.75
2019-04-05T11:24:35.396Z,3.20
2019-04-05T11:29:26.862Z,3.17
2019-04-05T11:31:57.232Z,7.17
2019-04-05T11:34:20.318Z,3.42
2019-04-05T11:36:46.413Z,3.83
2019-04-05T11:39:12.212Z,3.40
2019-04-05T11:41:37.983Z,4.20
2019-04-05T11:44:03.744Z,2.80
2019-04-05T11:46:29.791Z,3.30
2019-04-05T11:48:55.551Z,3.70
2019-04-05T11:51:21.362Z,3.37
2019-04-05T11:53:47.129Z,3.60
2019-04-05T11:56:14.941Z,3.77
2019-04-05T11:58:42.475Z,3.62
2019-04-05T12:01:13.223Z,6.03
2019-04-05T12:03:39.389Z,3.52
2019-04-05T12:08:30.808Z,9.25
2019-04-05T12:10:56.896Z,4.25
2019-04-05T12:15:48.637Z,4.65
2019-04-05T12:20:49.715Z,4.62
2019-04-05T12:23:10.236Z,5.00
2019-04-05T12:25:36.391Z,5.05
2019-04-05T12:30:30.314Z,5.20
2019-04-05T12:32:56.099Z,5.28
2019-04-05T12:35:22.097Z,5.90
2019-04-05T12:40:16.242Z,8.75
2019-04-05T12:45:09.488Z,5.47
2019-04-05T12:47:35.552Z,5.30
2019-04-05T12:50:01.312Z,5.55
2019-04-05T12:52:28.014Z,6.53
2019-04-05T12:54:54.924Z,5.80
2019-04-05T12:57:21.185Z,7.67
2019-04-05T12:59:46.957Z,6.05
2019-04-05T13:02:14.097Z,5.65
2019-04-05T13:04:40.708Z,5.75
2019-04-05T13:07:06.475Z,8.25
2019-04-05T13:09:32.278Z,18.42
2019-04-05T13:11:58.337Z,5.42
2019-04-05T13:14:26.192Z,5.95
2019-04-05T13:16:51.846Z,7.05
2019-04-05T13:19:17.682Z,5.05
2019-04-05T13:21:43.503Z,6.42
2019-04-05T13:24:10.108Z,6.87
2019-04-05T13:26:36.895Z,5.17
2019-04-05T13:29:03.395Z,6.20
2019-04-05T13:31:29.435Z,6.65
2019-04-05T13:33:55.636Z,9.45
2019-04-05T13:36:21.874Z,7.50
2019-04-05T13:38:54.833Z,11.05
2019-04-05T13:41:15.312Z,7.22
2019-04-05T13:43:41.381Z,7.97
2019-04-05T13:46:07.399Z,6.10
2019-04-05T13:48:33.173Z,6.85
2019-04-05T13:50:58.971Z,7.37
2019-04-05T13:53:24.751Z,6.47
2019-04-05T13:55:50.785Z,6.12
2019-04-05T13:58:16.939Z,9.50
2019-04-05T14:03:08.652Z,8.15
2019-04-05T14:05:34.824Z,9.35
2019-04-05T14:10:28.239Z,9.13
2019-04-05T14:12:54.061Z,6.55
2019-04-05T14:15:19.829Z,8.00
2019-04-05T14:17:45.601Z,6.47
2019-04-05T14:20:11.644Z,6.55
2019-04-05T14:22:37.410Z,6.65
2019-04-05T14:25:05.298Z,8.40
2019-04-05T14:27:34.809Z,8.48
2019-04-05T14:30:00.547Z,9.58
2019-04-05T14:32:27.012Z,7.45
2019-04-05T14:34:54.806Z,7.58
2019-04-05T14:37:22.154Z,7.05
2019-04-05T14:39:48.449Z,8.35
2019-04-05T14:42:14.786Z,8.53
2019-04-05T14:44:41.345Z,6.45
2019-04-05T14:47:07.117Z,7.70
2019-04-05T14:49:33.249Z,6.28
2019-04-05T14:54:26.595Z,6.17
2019-04-05T14:56:52.400Z,7.60
2019-04-05T14:59:18.261Z,8.43
2019-04-05T15:01:44.637Z,7.03
2019-04-05T15:04:12.274Z,7.70
2019-04-05T15:06:38.129Z,6.80
2019-04-05T15:09:04.909Z,8.75
2019-04-05T15:11:30.672Z,6.08
2019-04-05T15:13:56.469Z,7.60
2019-04-05T15:16:23.522Z,6.87
2019-04-05T15:18:49.765Z,8.93
2019-04-05T15:23:41.473Z,8.78
2019-04-05T15:26:08.858Z,8.95
2019-04-05T15:28:34.629Z,6.62
2019-04-05T15:31:00.449Z,7.12
2019-04-05T15:33:27.847Z,8.08
2019-04-05T15:35:54.463Z,7.62
2019-04-05T15:38:20.227Z,8.15
2019-04-05T15:40:46.040Z,8.13
2019-04-05T15:43:12.130Z,8.85
2019-04-05T15:45:38.156Z,7.62
2019-04-05T15:48:03.920Z,10.85
2019-04-05T15:50:29.700Z,8.28
2019-04-05T15:52:55.466Z,10.53
2019-04-05T15:55:21.275Z,11.30
2019-04-05T15:57:47.349Z,13.18
2019-04-05T16:00:15.067Z,12.50
2019-04-05T16:02:42.990Z,9.88
2019-04-05T16:05:08.542Z,9.98
2019-04-05T16:07:34.296Z,20.68
2019-04-05T16:10:00.065Z,11.50
2019-04-05T16:12:25.882Z,10.15
2019-04-05T16:14:51.640Z,10.98
2019-04-05T16:17:17.740Z,10.68
2019-04-05T16:22:09.541Z,8.73
2019-04-05T16:24:35.368Z,8.93
2019-04-05T16:27:01.486Z,10.10
2019-04-05T16:31:53.180Z,8.70
2019-04-05T16:34:19.251Z,9.68
2019-04-05T16:36:45.033Z,9.18
2019-04-05T16:39:12.696Z,10.45
2019-04-05T16:41:38.759Z,12.43
2019-04-05T16:44:04.567Z,9.93
2019-04-05T16:46:30.360Z,10.20
2019-04-05T16:48:56.123Z,10.72
2019-04-05T16:51:22.258Z,10.65
2019-04-05T16:56:27.077Z,10.15
2019-04-05T16:58:53.110Z,9.88
2019-04-05T17:01:26.837Z,11.00
2019-04-05T17:03:46.547Z,10.30
2019-04-05T17:06:12.323Z,10.72
2019-04-05T17:08:38.139Z,10.45
2019-04-05T17:11:04.287Z,9.08
2019-04-05T17:15:55.709Z,9.83
2019-04-05T17:18:21.493Z,11.95
2019-04-05T17:20:47.256Z,9.45
2019-04-05T17:23:13.028Z,9.90
2019-04-05T17:25:38.790Z,10.00
2019-04-05T17:28:04.582Z,13.95
2019-04-05T17:30:30.377Z,9.25
2019-04-05T17:32:56.426Z,9.65
2019-04-05T17:35:22.186Z,9.53
2019-04-05T17:37:47.955Z,9.48
2019-04-05T17:40:13.722Z,10.40
2019-04-05T17:42:39.501Z,12.55
2019-04-05T17:45:06.364Z,12.98
2019-04-05T17:47:32.176Z,14.43
2019-04-05T17:49:57.928Z,13.55
2019-04-05T17:52:24.006Z,16.52
2019-04-05T17:54:50.155Z,15.23
2019-04-05T17:59:41.897Z,18.65
2019-04-05T18:04:33.583Z,18.35
2019-04-05T18:06:59.353Z,22.73
2019-04-05T18:09:27.311Z,16.90
2019-04-05T18:11:52.797Z,27.90
2019-04-05T18:14:18.568Z,17.27
2019-04-05T18:16:44.377Z,21.90
2019-04-05T18:19:10.482Z,33.60
2019-04-05T18:24:01.893Z,70.00
2019-04-05T18:26:27.673Z,25.43
2019-04-05T18:28:53.774Z,20.95
2019-04-05T18:33:45.507Z,21.57
2019-04-05T18:36:11.277Z,23.45
2019-04-05T18:38:37.336Z,20.25
2019-04-05T18:43:29.033Z,24.27
2019-04-05T18:45:54.825Z,24.67
2019-04-05T18:48:20.945Z,22.85
2019-04-05T18:53:14.810Z,25.90
2019-04-05T18:55:40.626Z,22.90
2019-04-05T18:58:06.655Z,25.40
2019-04-05T19:00:32.495Z,26.90
2019-04-05T19:02:58.295Z,24.70
2019-04-05T19:05:24.446Z,25.57
2019-04-05T19:10:16.278Z,27.50
2019-04-05T19:15:07.992Z,27.27
2019-04-05T19:17:33.757Z,24.65
2019-04-05T19:19:59.532Z,28.20
2019-04-05T19:22:25.297Z,24.52
2019-04-05T19:24:51.078Z,27.50
2019-04-05T19:27:16.841Z,28.15
2019-04-05T19:29:42.863Z,26.57
2019-04-05T19:49:24.445Z,26.80
2019-04-05T19:51:50.254Z,29.55
2019-04-05T19:54:16.395Z,31.02
2019-04-05T19:59:07.831Z,29.12
2019-04-05T20:01:33.608Z,26.30
2019-04-05T20:03:59.377Z,27.37
2019-04-05T20:06:25.472Z,28.60
2019-04-05T20:11:18.002Z,27.37
2019-04-05T20:13:43.979Z,28.07
2019-04-05T20:16:09.761Z,27.95
2019-04-05T20:18:35.523Z,30.43
2019-04-05T20:21:01.299Z,29.75
2019-04-05T20:23:27.107Z,28.52
2019-04-05T20:25:52.885Z,26.85
2019-04-05T20:28:18.648Z,32.98
2019-04-05T20:30:44.426Z,28.10
2019-04-05T20:33:10.510Z,27.82
2019-04-05T20:38:02.303Z,30.30
2019-04-05T20:40:28.007Z,27.20
2019-04-05T20:42:54.090Z,29.87
2019-04-05T20:47:45.636Z,32.35
2019-04-05T20:52:37.073Z,28.70
2019-04-05T20:55:05.265Z,32.03
2019-04-05T20:57:31.039Z,29.35
2019-04-05T20:59:56.804Z,27.32
